Aviation Digital Data Service (ADDS)

Output produced by METARs form (0530 UTC 19 March 2019)
found at http://www.aviationweather.gov/metar/data/
 
METAR text: VTUU 190500Z 21007KT 160V270 8000 FEW035 35/23 Q1012 NOSIG
Conditions at: VTUU (UBON/RATCHATHANI, TH) observed 0500 UTC 19 March 2019
Temperature: 35.0°C (95°F)
Dewpoint: 23.0°C (73°F) [RH = 50%]
Pressure (altimeter): 29.88 inches Hg (1012.0 mb)
Winds: from the SSW (210 degrees) at 8 MPH (7 knots; 3.6 m/s)
Visibility: 5 miles ( 8 km)
Ceiling: at least 12,000 feet AGL
Clouds: few clouds at 3500 feet AGL
Weather: no significant weather observed at this time

METAR text: VTUU 190400Z 18007KT 140V230 8000 NSC 33/23 Q1013 NOSIG
Conditions at: VTUU (UBON/RATCHATHANI, TH) observed 0400 UTC 19 March 2019
Temperature: 33.0°C (91°F)
Dewpoint: 23.0°C (73°F) [RH = 56%]
Pressure (altimeter): 29.91 inches Hg (1013.0 mb)
Winds: from the S (180 degrees) at 8 MPH (7 knots; 3.6 m/s)
Visibility: 5 miles ( 8 km)
Ceiling: at least 12,000 feet AGL
Clouds: sky clear below 12,000 feet AGL
Weather: no significant weather observed at this time

METAR text: VTUU 190300Z 21008KT 150V250 7000 NSC 31/22 Q1013 NOSIG
Conditions at: VTUU (UBON/RATCHATHANI, TH) observed 0300 UTC 19 March 2019
Temperature: 31.0°C (88°F)
Dewpoint: 22.0°C (72°F) [RH = 59%]
Pressure (altimeter): 29.91 inches Hg (1013.0 mb)
Winds: from the SSW (210 degrees) at 9 MPH (8 knots; 4.1 m/s)
Visibility: 4 miles ( 7 km)
Ceiling: at least 12,000 feet AGL
Clouds: sky clear below 12,000 feet AGL
Weather: no significant weather observed at this time

METAR text: VTUU 190200Z 18006KT 100V230 6000 NSC 30/22 Q1013 NOSIG
Conditions at: VTUU (UBON/RATCHATHANI, TH) observed 0200 UTC 19 March 2019
Temperature: 30.0°C (86°F)
Dewpoint: 22.0°C (72°F) [RH = 62%]
Pressure (altimeter): 29.91 inches Hg (1013.0 mb)
Winds: from the S (180 degrees) at 7 MPH (6 knots; 3.1 m/s)
Visibility: 4 miles ( 6 km)
Ceiling: at least 12,000 feet AGL
Clouds: sky clear below 12,000 feet AGL
Weather: no significant weather observed at this time

METAR text: VTUU 190100Z 17004KT 110V230 5000 HZ NSC 28/20 Q1013 BECMG TL0200 5000 HZ
Conditions at: VTUU (UBON/RATCHATHANI, TH) observed 0100 UTC 19 March 2019
Temperature: 28.0°C (82°F)
Dewpoint: 20.0°C (68°F) [RH = 62%]
Pressure (altimeter): 29.91 inches Hg (1013.0 mb)
Winds: from the S (170 degrees) at 5 MPH (4 knots; 2.1 m/s)
Visibility: 3 miles ( 5 km)
Ceiling: at least 12,000 feet AGL
Clouds: sky clear below 12,000 feet AGL
Weather: HZ  (haze)

METAR text: VTUU 190000Z VRB03KT 3000 HZ NSC 26/18 Q1012 BECMG TL0100 5000 HZ
Conditions at: VTUU (UBON/RATCHATHANI, TH) observed 0000 UTC 19 March 2019
Temperature: 26.0°C (79°F)
Dewpoint: 18.0°C (64°F) [RH = 61%]
Pressure (altimeter): 29.88 inches Hg (1012.0 mb)
Winds: variable direction winds at 3 MPH (3 knots; 1.5 m/s)
Visibility: 1.86 miles (2.99 km)
Ceiling: at least 12,000 feet AGL
Clouds: sky clear below 12,000 feet AGL
Weather: HZ  (haze)

METAR text: VTUU 182330Z 15003KT 100V210 2500 HZ NSC 26/18 Q1012 BECMG TL0030 3000 HZ
Conditions at: VTUU (UBON/RATCHATHANI, TH) observed 2330 UTC 18 March 2019
Temperature: 26.0°C (79°F)
Dewpoint: 18.0°C (64°F) [RH = 61%]
Pressure (altimeter): 29.88 inches Hg (1012.0 mb)
Winds: from the SSE (150 degrees) at 3 MPH (3 knots; 1.5 m/s)
Visibility: 1.55 miles (2.49 km)
Ceiling: at least 12,000 feet AGL
Clouds: sky clear below 12,000 feet AGL
Weather: HZ  (haze)

METAR text: VTUU 182300Z 15003KT 050V200 2200 HZ NSC 25/18 Q1011 BECMG TL0030 3000 HZ
Conditions at: VTUU (UBON/RATCHATHANI, TH) observed 2300 UTC 18 March 2019
Temperature: 25.0°C (77°F)
Dewpoint: 18.0°C (64°F) [RH = 65%]
Pressure (altimeter): 29.85 inches Hg (1011.0 mb)
Winds: from the SSE (150 degrees) at 3 MPH (3 knots; 1.5 m/s)
Visibility: 1.37 miles (2.20 km)
Ceiling: at least 12,000 feet AGL
Clouds: sky clear below 12,000 feet AGL
Weather: HZ  (haze)

METAR text: VTUU 182200Z VRB02KT 4000 HZ NSC 26/17 Q1010 NOSIG
Conditions at: VTUU (UBON/RATCHATHANI, TH) observed 2200 UTC 18 March 2019
Temperature: 26.0°C (79°F)
Dewpoint: 17.0°C (63°F) [RH = 58%]
Pressure (altimeter): 29.82 inches Hg (1010.0 mb)
Winds: variable direction winds at 2 MPH (2 knots; 1.0 m/s)
Visibility: 2.49 miles (4.01 km)
Ceiling: at least 12,000 feet AGL
Clouds: sky clear below 12,000 feet AGL
Weather: HZ  (haze)

METAR text: VTUU 182100Z 14003KT 060V210 4000 HZ NSC 27/18 Q1009 NOSIG
Conditions at: VTUU (UBON/RATCHATHANI, TH) observed 2100 UTC 18 March 2019
Temperature: 27.0°C (81°F)
Dewpoint: 18.0°C (64°F) [RH = 58%]
Pressure (altimeter): 29.79 inches Hg (1009.0 mb)
Winds: from the SE (140 degrees) at 3 MPH (3 knots; 1.5 m/s)
Visibility: 2.49 miles (4.01 km)
Ceiling: at least 12,000 feet AGL
Clouds: sky clear below 12,000 feet AGL
Weather: HZ  (haze)

METAR text: VTUU 182000Z 15003KT 110V190 5000 BR NSC 26/20 Q1009 NOSIG
Conditions at: VTUU (UBON/RATCHATHANI, TH) observed 2000 UTC 18 March 2019
Temperature: 26.0°C (79°F)
Dewpoint: 20.0°C (68°F) [RH = 70%]
Pressure (altimeter): 29.79 inches Hg (1009.0 mb)
Winds: from the SSE (150 degrees) at 3 MPH (3 knots; 1.5 m/s)
Visibility: 3 miles ( 5 km)
Ceiling: at least 12,000 feet AGL
Clouds: sky clear below 12,000 feet AGL
Weather: BR  (mist)

METAR text: VTUU 181900Z 00000KT 5000 BR NSC 24/21 Q1009 NOSIG
Conditions at: VTUU (UBON/RATCHATHANI, TH) observed 1900 UTC 18 March 2019
Temperature: 24.0°C (75°F)
Dewpoint: 21.0°C (70°F) [RH = 83%]
Pressure (altimeter): 29.79 inches Hg (1009.0 mb)
Winds: calm
Visibility: 3 miles ( 5 km)
Ceiling: at least 12,000 feet AGL
Clouds: sky clear below 12,000 feet AGL
Weather: BR  (mist)

METAR text: VTUU 181800Z 07003KT 020V120 5000 BR NSC 26/21 Q1010 NOSIG
Conditions at: VTUU (UBON/RATCHATHANI, TH) observed 1800 UTC 18 March 2019
Temperature: 26.0°C (79°F)
Dewpoint: 21.0°C (70°F) [RH = 74%]
Pressure (altimeter): 29.82 inches Hg (1010.0 mb)
Winds: from the ENE (70 degrees) at 3 MPH (3 knots; 1.5 m/s)
Visibility: 3 miles ( 5 km)
Ceiling: at least 12,000 feet AGL
Clouds: sky clear below 12,000 feet AGL
Weather: BR  (mist)

METAR text: VTUU 181700Z 00000KT 6000 NSC 26/21 Q1010 NOSIG
Conditions at: VTUU (UBON/RATCHATHANI, TH) observed 1700 UTC 18 March 2019
Temperature: 26.0°C (79°F)
Dewpoint: 21.0°C (70°F) [RH = 74%]
Pressure (altimeter): 29.82 inches Hg (1010.0 mb)
Winds: calm
Visibility: 4 miles ( 6 km)
Ceiling: at least 12,000 feet AGL
Clouds: sky clear below 12,000 feet AGL
Weather: no significant weather observed at this time

METAR text: VTUU 181600Z 00000KT 6000 NSC 27/22 Q1010 NOSIG
Conditions at: VTUU (UBON/RATCHATHANI, TH) observed 1600 UTC 18 March 2019
Temperature: 27.0°C (81°F)
Dewpoint: 22.0°C (72°F) [RH = 74%]
Pressure (altimeter): 29.82 inches Hg (1010.0 mb)
Winds: calm
Visibility: 4 miles ( 6 km)
Ceiling: at least 12,000 feet AGL
Clouds: sky clear below 12,000 feet AGL
Weather: no significant weather observed at this time

METAR text: VTUU 181500Z VRB01KT 6000 NSC 26/20 Q1010 NOSIG
Conditions at: VTUU (UBON/RATCHATHANI, TH) observed 1500 UTC 18 March 2019
Temperature: 26.0°C (79°F)
Dewpoint: 20.0°C (68°F) [RH = 70%]
Pressure (altimeter): 29.82 inches Hg (1010.0 mb)
Winds: variable direction winds at 1 MPH (1 knots; 0.5 m/s)
Visibility: 4 miles ( 6 km)
Ceiling: at least 12,000 feet AGL
Clouds: sky clear below 12,000 feet AGL
Weather: no significant weather observed at this time

METAR text: VTUU 181400Z 05002KT 6000 NSC 27/21 Q1010 NOSIG
Conditions at: VTUU (UBON/RATCHATHANI, TH) observed 1400 UTC 18 March 2019
Temperature: 27.0°C (81°F)
Dewpoint: 21.0°C (70°F) [RH = 70%]
Pressure (altimeter): 29.82 inches Hg (1010.0 mb)
Winds: from the NE (50 degrees) at 2 MPH (2 knots; 1.0 m/s)
Visibility: 4 miles ( 6 km)
Ceiling: at least 12,000 feet AGL
Clouds: sky clear below 12,000 feet AGL
Weather: no significant weather observed at this time

METAR text: VTUU 181300Z 00000KT 6000 NSC 27/20 Q1009 NOSIG
Conditions at: VTUU (UBON/RATCHATHANI, TH) observed 1300 UTC 18 March 2019
Temperature: 27.0°C (81°F)
Dewpoint: 20.0°C (68°F) [RH = 66%]
Pressure (altimeter): 29.79 inches Hg (1009.0 mb)
Winds: calm
Visibility: 4 miles ( 6 km)
Ceiling: at least 12,000 feet AGL
Clouds: sky clear below 12,000 feet AGL
Weather: no significant weather observed at this time

METAR text: VTUU 181200Z 06002KT 7000 NSC 28/19 Q1008 NOSIG
Conditions at: VTUU (UBON/RATCHATHANI, TH) observed 1200 UTC 18 March 2019
Temperature: 28.0°C (82°F)
Dewpoint: 19.0°C (66°F) [RH = 58%]
Pressure (altimeter): 29.76 inches Hg (1008.0 mb)
Winds: from the ENE (60 degrees) at 2 MPH (2 knots; 1.0 m/s)
Visibility: 4 miles ( 7 km)
Ceiling: at least 12,000 feet AGL
Clouds: sky clear below 12,000 feet AGL
Weather: no significant weather observed at this time

METAR text: VTUU 181100Z 00000KT 7000 NSC 32/19 Q1008 NOSIG
Conditions at: VTUU (UBON/RATCHATHANI, TH) observed 1100 UTC 18 March 2019
Temperature: 32.0°C (90°F)
Dewpoint: 19.0°C (66°F) [RH = 46%]
Pressure (altimeter): 29.76 inches Hg (1008.0 mb)
Winds: calm
Visibility: 4 miles ( 7 km)
Ceiling: at least 12,000 feet AGL
Clouds: sky clear below 12,000 feet AGL
Weather: no significant weather observed at this time

METAR text: VTUU 181030Z 07003KT 050V140 8000 NSC 35/19 Q1008 NOSIG
Conditions at: VTUU (UBON/RATCHATHANI, TH) observed 1030 UTC 18 March 2019
Temperature: 35.0°C (95°F)
Dewpoint: 19.0°C (66°F) [RH = 39%]
Pressure (altimeter): 29.76 inches Hg (1008.0 mb)
Winds: from the ENE (70 degrees) at 3 MPH (3 knots; 1.5 m/s)
Visibility: 5 miles ( 8 km)
Ceiling: at least 12,000 feet AGL
Clouds: sky clear below 12,000 feet AGL
Weather: no significant weather observed at this time

METAR text: VTUU 181000Z 10003KT 060V180 8000 NSC 36/17 Q1008 NOSIG
Conditions at: VTUU (UBON/RATCHATHANI, TH) observed 1000 UTC 18 March 2019
Temperature: 36.0°C (97°F)
Dewpoint: 17.0°C (63°F) [RH = 33%]
Pressure (altimeter): 29.76 inches Hg (1008.0 mb)
Winds: from the E (100 degrees) at 3 MPH (3 knots; 1.5 m/s)
Visibility: 5 miles ( 8 km)
Ceiling: at least 12,000 feet AGL
Clouds: sky clear below 12,000 feet AGL
Weather: no significant weather observed at this time

METAR text: VTUU 180900Z 07003KT 8000 NSC 37/18 Q1008 NOSIG
Conditions at: VTUU (UBON/RATCHATHANI, TH) observed 0900 UTC 18 March 2019
Temperature: 37.0°C (99°F)
Dewpoint: 18.0°C (64°F) [RH = 33%]
Pressure (altimeter): 29.76 inches Hg (1008.0 mb)
Winds: from the ENE (70 degrees) at 3 MPH (3 knots; 1.5 m/s)
Visibility: 5 miles ( 8 km)
Ceiling: at least 12,000 feet AGL
Clouds: sky clear below 12,000 feet AGL
Weather: no significant weather observed at this time

METAR text: VTUU 180800Z 16003KT 8000 NSC 37/19 Q1008 NOSIG
Conditions at: VTUU (UBON/RATCHATHANI, TH) observed 0800 UTC 18 March 2019
Temperature: 37.0°C (99°F)
Dewpoint: 19.0°C (66°F) [RH = 35%]
Pressure (altimeter): 29.76 inches Hg (1008.0 mb)
Winds: from the SSE (160 degrees) at 3 MPH (3 knots; 1.5 m/s)
Visibility: 5 miles ( 8 km)
Ceiling: at least 12,000 feet AGL
Clouds: sky clear below 12,000 feet AGL
Weather: no significant weather observed at this time

METAR text: VTUU 180700Z 18004KT 140V260 8000 NSC 36/21 Q1009 NOSIG
Conditions at: VTUU (UBON/RATCHATHANI, TH) observed 0700 UTC 18 March 2019
Temperature: 36.0°C (97°F)
Dewpoint: 21.0°C (70°F) [RH = 42%]
Pressure (altimeter): 29.79 inches Hg (1009.0 mb)
Winds: from the S (180 degrees) at 5 MPH (4 knots; 2.1 m/s)
Visibility: 5 miles ( 8 km)
Ceiling: at least 12,000 feet AGL
Clouds: sky clear below 12,000 feet AGL
Weather: no significant weather observed at this time

METAR text: VTUU 180600Z 19005KT 8000 NSC 35/21 Q1011 NOSIG
Conditions at: VTUU (UBON/RATCHATHANI, TH) observed 0600 UTC 18 March 2019
Temperature: 35.0°C (95°F)
Dewpoint: 21.0°C (70°F) [RH = 44%]
Pressure (altimeter): 29.85 inches Hg (1011.0 mb)
Winds: from the S (190 degrees) at 6 MPH (5 knots; 2.6 m/s)
Visibility: 5 miles ( 8 km)
Ceiling: at least 12,000 feet AGL
Clouds: sky clear below 12,000 feet AGL
Weather: no significant weather observed at this time

METAR text: VTUU 180500Z 17007KT 8000 NSC 34/21 Q1013 NOSIG
Conditions at: VTUU (UBON/RATCHATHANI, TH) observed 0500 UTC 18 March 2019
Temperature: 34.0°C (93°F)
Dewpoint: 21.0°C (70°F) [RH = 47%]
Pressure (altimeter): 29.91 inches Hg (1013.0 mb)
Winds: from the S (170 degrees) at 8 MPH (7 knots; 3.6 m/s)
Visibility: 5 miles ( 8 km)
Ceiling: at least 12,000 feet AGL
Clouds: sky clear below 12,000 feet AGL
Weather: no significant weather observed at this time

METAR text: VTUU 180400Z 17006KT 8000 NSC 34/21 Q1013 NOSIG
Conditions at: VTUU (UBON/RATCHATHANI, TH) observed 0400 UTC 18 March 2019
Temperature: 34.0°C (93°F)
Dewpoint: 21.0°C (70°F) [RH = 47%]
Pressure (altimeter): 29.91 inches Hg (1013.0 mb)
Winds: from the S (170 degrees) at 7 MPH (6 knots; 3.1 m/s)
Visibility: 5 miles ( 8 km)
Ceiling: at least 12,000 feet AGL
Clouds: sky clear below 12,000 feet AGL
Weather: no significant weather observed at this time

METAR text: VTUU 180300Z 16006KT 060V220 8000 NSC 32/21 Q1015 NOSIG
Conditions at: VTUU (UBON/RATCHATHANI, TH) observed 0300 UTC 18 March 2019
Temperature: 32.0°C (90°F)
Dewpoint: 21.0°C (70°F) [RH = 52%]
Pressure (altimeter): 29.97 inches Hg (1015.0 mb)
Winds: from the SSE (160 degrees) at 7 MPH (6 knots; 3.1 m/s)
Visibility: 5 miles ( 8 km)
Ceiling: at least 12,000 feet AGL
Clouds: sky clear below 12,000 feet AGL
Weather: no significant weather observed at this time

METAR text: VTUU 180200Z 17006KT 7000 NSC 30/21 Q1015 NOSIG
Conditions at: VTUU (UBON/RATCHATHANI, TH) observed 0200 UTC 18 March 2019
Temperature: 30.0°C (86°F)
Dewpoint: 21.0°C (70°F) [RH = 59%]
Pressure (altimeter): 29.97 inches Hg (1015.0 mb)
Winds: from the S (170 degrees) at 7 MPH (6 knots; 3.1 m/s)
Visibility: 4 miles ( 7 km)
Ceiling: at least 12,000 feet AGL
Clouds: sky clear below 12,000 feet AGL
Weather: no significant weather observed at this time

METAR text: VTUU 180100Z 14003KT 6000 NSC 28/21 Q1014 NOSIG
Conditions at: VTUU (UBON/RATCHATHANI, TH) observed 0100 UTC 18 March 2019
Temperature: 28.0°C (82°F)
Dewpoint: 21.0°C (70°F) [RH = 66%]
Pressure (altimeter): 29.94 inches Hg (1014.0 mb)
Winds: from the SE (140 degrees) at 3 MPH (3 knots; 1.5 m/s)
Visibility: 4 miles ( 6 km)
Ceiling: at least 12,000 feet AGL
Clouds: sky clear below 12,000 feet AGL
Weather: no significant weather observed at this time

METAR text: VTUU 180000Z 00000KT 4000 BR NSC 25/21 Q1013 BECMG TL0100 5000 BR
Conditions at: VTUU (UBON/RATCHATHANI, TH) observed 0000 UTC 18 March 2019
Temperature: 25.0°C (77°F)
Dewpoint: 21.0°C (70°F) [RH = 79%]
Pressure (altimeter): 29.91 inches Hg (1013.0 mb)
Winds: calm
Visibility: 2.49 miles (4.01 km)
Ceiling: at least 12,000 feet AGL
Clouds: sky clear below 12,000 feet AGL
Weather: BR  (mist)

METAR text: VTUU 172330Z 00000KT 3500 BR NSC 25/21 Q1013 BECMG TL0100 5000 BR
Conditions at: VTUU (UBON/RATCHATHANI, TH) observed 2330 UTC 17 March 2019
Temperature: 25.0°C (77°F)
Dewpoint: 21.0°C (70°F) [RH = 79%]
Pressure (altimeter): 29.91 inches Hg (1013.0 mb)
Winds: calm
Visibility: 2.17 miles (3.49 km)
Ceiling: at least 12,000 feet AGL
Clouds: sky clear below 12,000 feet AGL
Weather: BR  (mist)

METAR text: VTUU 172300Z 00000KT 3500 BR NSC 25/21 Q1012 BECMG TL0100 5000 BR
Conditions at: VTUU (UBON/RATCHATHANI, TH) observed 2300 UTC 17 March 2019
Temperature: 25.0°C (77°F)
Dewpoint: 21.0°C (70°F) [RH = 79%]
Pressure (altimeter): 29.88 inches Hg (1012.0 mb)
Winds: calm
Visibility: 2.17 miles (3.49 km)
Ceiling: at least 12,000 feet AGL
Clouds: sky clear below 12,000 feet AGL
Weather: BR  (mist)

METAR text: VTUU 172200Z 05002KT 4000 BR NSC 23/22 Q1011 NOSIG
Conditions at: VTUU (UBON/RATCHATHANI, TH) observed 2200 UTC 17 March 2019
Temperature: 23.0°C (73°F)
Dewpoint: 22.0°C (72°F) [RH = 94%]
Pressure (altimeter): 29.85 inches Hg (1011.0 mb)
Winds: from the NE (50 degrees) at 2 MPH (2 knots; 1.0 m/s)
Visibility: 2.49 miles (4.01 km)
Ceiling: at least 12,000 feet AGL
Clouds: sky clear below 12,000 feet AGL
Weather: BR  (mist)

METAR text: VTUU 172100Z VRB03KT 5000 BR NSC 25/22 Q1011 NOSIG
Conditions at: VTUU (UBON/RATCHATHANI, TH) observed 2100 UTC 17 March 2019
Temperature: 25.0°C (77°F)
Dewpoint: 22.0°C (72°F) [RH = 83%]
Pressure (altimeter): 29.85 inches Hg (1011.0 mb)
Winds: variable direction winds at 3 MPH (3 knots; 1.5 m/s)
Visibility: 3 miles ( 5 km)
Ceiling: at least 12,000 feet AGL
Clouds: sky clear below 12,000 feet AGL
Weather: BR  (mist)

METAR text: VTUU 172000Z VRB02KT 5000 BR NSC 24/21 Q1011 NOSIG
Conditions at: VTUU (UBON/RATCHATHANI, TH) observed 2000 UTC 17 March 2019
Temperature: 24.0°C (75°F)
Dewpoint: 21.0°C (70°F) [RH = 83%]
Pressure (altimeter): 29.85 inches Hg (1011.0 mb)
Winds: variable direction winds at 2 MPH (2 knots; 1.0 m/s)
Visibility: 3 miles ( 5 km)
Ceiling: at least 12,000 feet AGL
Clouds: sky clear below 12,000 feet AGL
Weather: BR  (mist)

METAR text: VTUU 171900Z VRB02KT 5000 BR NSC 25/21 Q1011 NOSIG
Conditions at: VTUU (UBON/RATCHATHANI, TH) observed 1900 UTC 17 March 2019
Temperature: 25.0°C (77°F)
Dewpoint: 21.0°C (70°F) [RH = 79%]
Pressure (altimeter): 29.85 inches Hg (1011.0 mb)
Winds: variable direction winds at 2 MPH (2 knots; 1.0 m/s)
Visibility: 3 miles ( 5 km)
Ceiling: at least 12,000 feet AGL
Clouds: sky clear below 12,000 feet AGL
Weather: BR  (mist)

METAR text: VTUU 171800Z 04002KT 5000 BR NSC 25/22 Q1011 NOSIG
Conditions at: VTUU (UBON/RATCHATHANI, TH) observed 1800 UTC 17 March 2019
Temperature: 25.0°C (77°F)
Dewpoint: 22.0°C (72°F) [RH = 83%]
Pressure (altimeter): 29.85 inches Hg (1011.0 mb)
Winds: from the NE (40 degrees) at 2 MPH (2 knots; 1.0 m/s)
Visibility: 3 miles ( 5 km)
Ceiling: at least 12,000 feet AGL
Clouds: sky clear below 12,000 feet AGL
Weather: BR  (mist)

Forecast for: VTUU (UBON/RATCHATHANI, TH)
Text: TAF VTUU 182300Z 1900/1924 14003KT 4000 BR NSC
Forecast period: 0000 to 0100 UTC 19 March 2019
Forecast type: FROM: standard forecast or significant change
Winds: from the SE (140 degrees) at 3 MPH (3 knots; 1.5 m/s)
Visibility: 2.49 miles (4.01 km)
Ceiling: unknown
Clouds: missing
Weather: BR  (mist)
Text: BECMG 1901/1903 6000 NSW
Forecast period: 0100 to 0500 UTC 19 March 2019
Forecast type: BECOMING: Conditions expected to become as follows by 0300 UTC 19 March 2019
Winds: from the SE (140 degrees) at 3 MPH (3 knots; 1.5 m/s)
Visibility: 4 miles (6 km)
Ceiling: unknown
Clouds: missing
Weather: NSW  (no significant weather)
Text: BECMG 1905/1907 14006KT 8000 FEW035
Forecast period: 0500 to 2000 UTC 19 March 2019
Forecast type: BECOMING: Conditions expected to become as follows by 0700 UTC 19 March 2019
Winds: from the SE (140 degrees) at 7 MPH (6 knots; 3.1 m/s)
Visibility: 5 miles (8 km)
Ceiling: at least 12,000 feet AGL
Clouds: few clouds at 3500 feet AGL
Weather: NSW  (no significant weather)
Text: BECMG 1920/1922 4000 BR
Forecast period: 2000 UTC 19 March 2019 to 0000 UTC 20 March 2019
Forecast type: BECOMING: Conditions expected to become as follows by 2200 UTC 19 March 2019
Winds: from the SE (140 degrees) at 7 MPH (6 knots; 3.1 m/s)
Visibility: 2.49 miles (4.01 km)
Ceiling: at least 12,000 feet AGL
Clouds: few clouds at 3500 feet AGL
Weather: BR  (mist)